Gaines Landing, Arkansas
Current Conditions -  °F | °C
As of 5:53 AM on Monday 24 Nov 2014 (Local Time) from KGLH Reporting Station
Overcast Overcast  
Wind Chill: 54°   Ceiling: 3000
Heat Index: 54°   Visibility: 10mi
Dew Point: 44°   Wind: 18mph
Humidity: 69%   Direction: 290°WNW
Pressure: 29.78"   Gusts: 25mph
Location:  33.3324°N, 91.3183°W
Report Text: KGLH 241153Z AUTO 29016G22KT 10SM OVC030 12/07 A2978 RMK AO2 SLP092 7//// T01220067 10172 20122 53056 $
Loading
Personal Weather Stations






























Interactive Weather Map New forecast layout! Learn more

10-Day Weather Forecast

Advertisements
Track Severe Weather on mobile